createdAt,value
2023-04-16T00:02:30.534Z,3.53
2023-04-16T00:05:40.253Z,3.50
2023-04-16T00:08:48.673Z,3.23
2023-04-16T00:11:57.515Z,3.43
2023-04-16T00:15:06.420Z,3.23
2023-04-16T00:18:14.737Z,3.60
2023-04-16T00:21:24.549Z,3.67
2023-04-16T00:24:32.872Z,3.27
2023-04-16T00:27:41.386Z,3.30
2023-04-16T00:30:49.725Z,3.70
2023-04-16T00:33:58.820Z,3.20
2023-04-16T00:37:08.598Z,3.50
2023-04-16T00:40:16.976Z,3.27
2023-04-16T00:43:26.617Z,3.67
2023-04-16T00:46:36.172Z,3.20
2023-04-16T00:49:44.615Z,3.30
2023-04-16T00:52:54.439Z,3.67
2023-04-16T00:56:04.481Z,3.57
2023-04-16T00:59:13.208Z,3.63
2023-04-16T01:02:21.731Z,3.90
2023-04-16T01:05:32.082Z,3.77
2023-04-16T01:08:42.018Z,3.77
2023-04-16T01:11:50.592Z,3.80
2023-04-16T01:14:59.022Z,3.90
2023-04-16T01:18:15.993Z,3.50
2023-04-16T01:21:25.847Z,3.90
2023-04-16T01:24:34.296Z,3.67
2023-04-16T01:27:42.728Z,3.97
2023-04-16T01:30:51.137Z,3.87
2023-04-16T01:34:25.593Z,4.10
2023-04-16T01:37:35.380Z,3.90
2023-04-16T01:40:44.028Z,3.50
2023-04-16T01:43:53.612Z,3.67
2023-04-16T01:47:02.073Z,3.50
2023-04-16T01:50:11.396Z,3.47
2023-04-16T01:53:21.237Z,3.43
2023-04-16T01:56:29.682Z,3.83
2023-04-16T01:59:38.326Z,3.80
2023-04-16T02:02:49.405Z,3.73
2023-04-16T02:06:06.012Z,3.60
2023-04-16T02:09:15.813Z,3.37
2023-04-16T02:12:24.635Z,3.90
2023-04-16T02:15:32.951Z,3.80
2023-04-16T02:18:41.576Z,3.87
2023-04-16T02:21:50.385Z,3.50
2023-04-16T02:25:00.146Z,3.70
2023-04-16T02:28:08.929Z,3.30
2023-04-16T02:31:22.462Z,3.30
2023-04-16T02:34:31.334Z,3.70
2023-04-16T02:37:40.836Z,3.83
2023-04-16T02:40:50.669Z,3.70
2023-04-16T02:43:59.200Z,3.83
2023-04-16T02:47:07.563Z,3.90
2023-04-16T02:50:16.323Z,3.73
2023-04-16T02:53:24.703Z,4.00
2023-04-16T02:56:34.515Z,3.93
2023-04-16T02:59:42.905Z,3.53
2023-04-16T03:02:51.590Z,3.60
2023-04-16T03:06:00.121Z,3.37
2023-04-16T03:09:08.875Z,3.70
2023-04-16T03:12:18.894Z,3.83
2023-04-16T03:15:27.539Z,3.70
2023-04-16T03:18:35.876Z,3.97
2023-04-16T03:21:44.204Z,3.70
2023-04-16T03:24:52.829Z,3.47
2023-04-16T03:28:03.816Z,3.70
2023-04-16T03:31:12.470Z,3.30
2023-04-16T03:34:21.441Z,3.87
2023-04-16T03:37:30.230Z,4.00
2023-04-16T03:40:38.751Z,3.70
2023-04-16T03:43:48.585Z,3.47
2023-04-16T03:46:58.081Z,3.40
2023-04-16T03:50:07.201Z,3.37
2023-04-16T03:53:15.868Z,3.57
2023-04-16T03:56:24.543Z,3.13
2023-04-16T03:59:35.792Z,3.60
2023-04-16T04:02:44.474Z,3.83
2023-04-16T04:05:59.235Z,3.43
2023-04-16T04:09:11.544Z,3.37
2023-04-16T04:12:20.090Z,3.40
2023-04-16T04:15:30.924Z,3.30
2023-04-16T04:18:39.314Z,3.60
2023-04-16T04:21:48.167Z,3.70
2023-04-16T04:24:58.746Z,3.50
2023-04-16T04:28:09.487Z,3.13
2023-04-16T04:31:19.344Z,3.53
2023-04-16T04:34:27.925Z,3.30
2023-04-16T04:37:40.142Z,3.20
2023-04-16T04:41:01.082Z,3.10
2023-04-16T04:44:17.261Z,3.97
2023-04-16T04:47:27.257Z,3.53
2023-04-16T04:50:35.828Z,3.93
2023-04-16T04:53:44.726Z,2.93
2023-04-16T04:56:53.638Z,3.13
2023-04-16T05:00:04.232Z,3.30
2023-04-16T05:03:22.995Z,3.60
2023-04-16T05:06:31.541Z,3.30
2023-04-16T05:09:39.902Z,3.40
2023-04-16T05:12:49.198Z,3.60
2023-04-16T05:15:57.984Z,3.43
2023-04-16T05:19:08.337Z,3.33
2023-04-16T05:22:18.941Z,3.23
2023-04-16T05:25:27.319Z,3.80
2023-04-16T05:28:35.662Z,3.10
2023-04-16T05:31:44.154Z,3.50
2023-04-16T05:34:53.940Z,3.23
2023-04-16T05:38:02.341Z,3.47
2023-04-16T05:41:10.712Z,3.10
2023-04-16T05:44:19.060Z,3.40
2023-04-16T05:47:27.417Z,3.40
2023-04-16T05:50:37.499Z,3.70
2023-04-16T05:53:46.051Z,3.47
2023-04-16T05:56:54.343Z,3.20
2023-04-16T06:00:02.826Z,3.20
2023-04-16T06:03:20.675Z,3.50
2023-04-16T06:06:30.554Z,3.37
2023-04-16T06:09:38.925Z,3.30
2023-04-16T06:12:47.287Z,3.37
2023-04-16T06:15:55.737Z,3.40
2023-04-16T06:19:04.076Z,3.60
2023-04-16T06:22:13.914Z,3.37
2023-04-16T06:25:22.264Z,3.40
2023-04-16T06:28:30.666Z,3.43
2023-04-16T06:31:39.095Z,3.30
2023-04-16T06:34:47.447Z,3.40
2023-04-16T06:37:57.152Z,3.63
2023-04-16T06:41:06.039Z,3.57
2023-04-16T06:44:14.726Z,3.60
2023-04-16T06:47:23.200Z,3.90
2023-04-16T06:50:31.633Z,3.73
2023-04-16T06:53:42.525Z,3.37
2023-04-16T06:56:50.870Z,3.70
2023-04-16T06:59:59.201Z,3.57
2023-04-16T07:03:07.728Z,3.67
2023-04-16T07:06:16.225Z,3.53
2023-04-16T07:09:26.853Z,3.87
2023-04-16T07:12:35.343Z,3.50
2023-04-16T07:15:43.625Z,3.37
2023-04-16T07:18:51.991Z,3.50
2023-04-16T07:22:00.473Z,3.57
2023-04-16T07:25:11.025Z,3.47
2023-04-16T07:28:19.337Z,3.70
2023-04-16T07:31:28.090Z,3.27
2023-04-16T07:34:36.505Z,3.63
2023-04-16T07:37:45.118Z,3.40
2023-04-16T07:40:54.874Z,3.90
2023-04-16T07:44:03.348Z,3.80
2023-04-16T07:47:11.711Z,3.50
2023-04-16T07:50:20.527Z,3.43
2023-04-16T07:53:29.064Z,3.80
2023-04-16T07:56:38.836Z,3.30
2023-04-16T07:59:47.212Z,3.70
2023-04-16T08:02:55.744Z,3.63
2023-04-16T08:06:04.375Z,3.60
2023-04-16T08:09:12.858Z,3.00
2023-04-16T08:12:23.146Z,3.13
2023-04-16T08:15:32.429Z,3.10
2023-04-16T08:18:40.874Z,3.40
2023-04-16T08:21:49.344Z,3.43
2023-04-16T08:24:58.204Z,3.10
2023-04-16T08:28:08.098Z,3.70
2023-04-16T08:31:16.904Z,3.80
2023-04-16T08:34:25.462Z,3.50
2023-04-16T08:37:34.129Z,3.20
2023-04-16T08:40:44.030Z,3.80
2023-04-16T08:43:58.610Z,3.53
2023-04-16T08:47:10.559Z,3.30
2023-04-16T08:50:24.217Z,3.57
2023-04-16T08:53:37.769Z,3.40
2023-04-16T08:56:46.306Z,3.40
2023-04-16T08:59:57.169Z,3.63
2023-04-16T09:03:06.100Z,3.50
2023-04-16T09:06:15.948Z,3.20
2023-04-16T09:09:24.872Z,3.67
2023-04-16T09:12:33.459Z,3.53
2023-04-16T09:15:43.961Z,3.53
2023-04-16T09:18:53.558Z,3.70
2023-04-16T09:22:02.017Z,3.60
2023-04-16T09:25:11.442Z,3.53
2023-04-16T09:28:40.952Z,3.27
2023-04-16T09:32:03.369Z,3.37
2023-04-16T09:35:11.761Z,3.83
2023-04-16T09:38:21.206Z,3.50
2023-04-16T09:41:32.097Z,3.67
2023-04-16T09:44:40.678Z,3.57
2023-04-16T09:47:50.526Z,3.87
2023-04-16T09:50:59.098Z,3.90
2023-04-16T09:54:07.803Z,3.70
2023-04-16T09:57:17.152Z,3.80
2023-04-16T10:00:25.629Z,3.83
2023-04-16T10:03:36.977Z,4.00
2023-04-16T10:06:48.581Z,4.00
2023-04-16T10:09:57.940Z,3.43
2023-04-16T10:13:06.656Z,3.67
2023-04-16T10:16:15.187Z,3.43
2023-04-16T10:19:25.946Z,3.30
2023-04-16T10:22:34.753Z,3.80
2023-04-16T10:25:45.147Z,3.20
2023-04-16T10:28:53.832Z,3.60
2023-04-16T10:32:02.944Z,3.38
2023-04-16T10:35:17.557Z,3.38
2023-04-16T10:38:27.811Z,3.50
2023-04-16T10:41:36.646Z,3.22
2023-04-16T10:44:47.246Z,3.08
2023-04-16T10:47:58.383Z,3.08
2023-04-16T10:51:08.557Z,3.05
2023-04-16T10:54:26.849Z,3.42
2023-04-16T10:57:35.401Z,2.90
2023-04-16T11:00:51.290Z,3.33
2023-04-16T11:04:03.040Z,3.17
2023-04-16T11:07:21.535Z,3.22
2023-04-16T11:10:30.051Z,3.53
2023-04-16T11:13:38.881Z,3.10
2023-04-16T11:16:47.640Z,3.22
2023-04-16T11:19:56.940Z,3.30
2023-04-16T11:23:13.258Z,2.80
2023-04-16T11:26:24.465Z,3.30
2023-04-16T11:29:34.235Z,2.70
2023-04-16T11:32:42.715Z,3.40
2023-04-16T11:35:58.993Z,3.33
2023-04-16T11:39:08.998Z,3.22
2023-04-16T11:42:22.802Z,3.03
2023-04-16T11:45:31.298Z,3.10
2023-04-16T11:48:53.000Z,3.30
2023-04-16T11:52:01.828Z,3.00
2023-04-16T11:55:11.830Z,2.78
2023-04-16T11:58:22.362Z,2.60
2023-04-16T12:01:31.389Z,3.08
2023-04-16T12:04:39.842Z,2.92
2023-04-16T12:07:48.379Z,3.40
2023-04-16T12:10:59.712Z,2.72
2023-04-16T12:14:12.062Z,3.10
2023-04-16T12:17:21.203Z,2.60
2023-04-16T12:20:41.638Z,2.90
2023-04-16T12:23:54.937Z,2.65
2023-04-16T12:27:06.855Z,2.78
2023-04-16T12:30:16.702Z,2.60
2023-04-16T12:33:25.204Z,2.70
2023-04-16T12:36:33.567Z,3.08
2023-04-16T12:39:41.884Z,2.88
2023-04-16T12:42:51.738Z,2.90
2023-04-16T12:46:02.225Z,2.75
2023-04-16T12:49:13.140Z,2.63
2023-04-16T12:52:23.298Z,3.20
2023-04-16T12:55:32.260Z,2.80
2023-04-16T12:58:42.005Z,2.67
2023-04-16T13:01:50.449Z,2.63
2023-04-16T13:04:59.072Z,2.78
2023-04-16T13:08:07.973Z,2.90
2023-04-16T13:11:16.558Z,2.75
2023-04-16T13:14:26.330Z,2.47
2023-04-16T13:17:34.761Z,2.63
2023-04-16T13:20:43.352Z,2.65
2023-04-16T13:23:51.958Z,2.53
2023-04-16T13:27:00.583Z,2.60
2023-04-16T13:30:11.524Z,2.65
2023-04-16T13:33:20.857Z,2.60
2023-04-16T13:36:30.197Z,2.65
2023-04-16T13:39:38.551Z,2.42
2023-04-16T13:42:46.968Z,2.55
2023-04-16T13:45:56.995Z,2.55
2023-04-16T13:49:05.440Z,2.10
2023-04-16T13:52:13.814Z,2.50
2023-04-16T13:55:22.230Z,2.42
2023-04-16T13:58:30.780Z,2.50
2023-04-16T14:01:41.339Z,2.45
2023-04-16T14:04:49.841Z,2.67
2023-04-16T14:07:58.358Z,2.35
2023-04-16T14:11:06.755Z,2.40
2023-04-16T14:14:15.232Z,2.30
2023-04-16T14:17:25.092Z,2.28
2023-04-16T14:20:33.582Z,2.17
2023-04-16T14:23:41.901Z,2.47
2023-04-16T14:26:50.268Z,2.45
2023-04-16T14:29:58.800Z,2.30
2023-04-16T14:33:08.681Z,2.17
2023-04-16T14:36:17.144Z,1.95
2023-04-16T14:39:25.959Z,2.17
2023-04-16T14:42:34.390Z,2.20
2023-04-16T14:45:42.821Z,2.35
2023-04-16T14:48:52.627Z,2.25
2023-04-16T14:52:02.195Z,2.50
2023-04-16T14:55:10.830Z,2.08
2023-04-16T14:58:19.390Z,2.20
2023-04-16T15:01:27.838Z,2.50
2023-04-16T15:04:37.780Z,2.30
2023-04-16T15:07:46.271Z,2.22
2023-04-16T15:10:54.726Z,2.17
2023-04-16T15:14:03.202Z,2.58
2023-04-16T15:17:11.935Z,2.20
2023-04-16T15:20:22.030Z,2.38
2023-04-16T15:23:30.399Z,2.40
2023-04-16T15:26:38.889Z,2.00
2023-04-16T15:29:49.445Z,2.30
2023-04-16T15:32:58.181Z,2.00
2023-04-16T15:36:08.454Z,2.00
2023-04-16T15:39:16.922Z,2.03
2023-04-16T15:42:26.036Z,2.30
2023-04-16T15:45:34.459Z,1.90
2023-04-16T15:48:42.894Z,2.45
2023-04-16T15:51:52.793Z,1.95
2023-04-16T15:55:03.587Z,1.90
2023-04-16T15:58:12.940Z,2.22
2023-04-16T16:01:22.359Z,2.03
2023-04-16T16:04:30.849Z,2.00
2023-04-16T16:07:41.073Z,1.80
2023-04-16T16:10:49.444Z,1.92
2023-04-16T16:13:58.011Z,1.90
2023-04-16T16:17:06.831Z,1.90
2023-04-16T16:20:15.882Z,2.03
2023-04-16T16:23:25.944Z,2.20
2023-04-16T16:26:34.337Z,2.20
2023-04-16T16:29:42.807Z,1.90
2023-04-16T16:32:51.288Z,1.83
2023-04-16T16:35:59.810Z,2.10
2023-04-16T16:39:09.892Z,2.30
2023-04-16T16:42:19.013Z,2.00
2023-04-16T16:45:28.255Z,2.20
2023-04-16T16:48:36.654Z,2.30
2023-04-16T16:51:46.728Z,2.10
2023-04-16T16:54:56.886Z,2.15
2023-04-16T16:58:05.255Z,2.30
2023-04-16T17:01:13.721Z,1.90
2023-04-16T17:04:22.138Z,2.03
2023-04-16T17:07:30.623Z,2.20
2023-04-16T17:10:40.608Z,2.30
2023-04-16T17:13:48.906Z,2.15
2023-04-16T17:16:57.368Z,2.03
2023-04-16T17:20:09.360Z,2.30
2023-04-16T17:23:17.962Z,1.98
2023-04-16T17:26:27.717Z,2.08
2023-04-16T17:29:36.239Z,2.10
2023-04-16T17:32:44.724Z,2.20
2023-04-16T17:35:53.245Z,1.90
2023-04-16T17:39:01.682Z,2.10
2023-04-16T17:42:11.468Z,2.35
2023-04-16T17:45:19.986Z,2.10
2023-04-16T17:48:28.374Z,2.08
2023-04-16T17:51:36.684Z,2.13
2023-04-16T17:54:44.983Z,2.03
2023-04-16T17:57:54.739Z,1.92
2023-04-16T18:01:03.667Z,1.80
2023-04-16T18:04:12.747Z,1.92
2023-04-16T18:07:21.615Z,2.00
2023-04-16T18:10:32.759Z,1.88
2023-04-16T18:13:43.667Z,1.90
2023-04-16T18:16:52.054Z,1.95
2023-04-16T18:20:00.349Z,1.90
2023-04-16T18:23:08.760Z,1.75
2023-04-16T18:26:20.568Z,1.92
2023-04-16T18:29:33.823Z,1.80
2023-04-16T18:32:54.970Z,2.00
2023-04-16T18:36:11.809Z,2.05
2023-04-16T18:39:20.687Z,2.00
2023-04-16T18:42:29.388Z,2.00
2023-04-16T18:48:48.328Z,2.30
2023-04-16T18:51:56.950Z,2.03
2023-04-16T18:55:05.723Z,1.67
2023-04-16T18:58:14.006Z,2.15
2023-04-16T19:01:23.892Z,2.30
2023-04-16T19:04:32.615Z,1.80
2023-04-16T19:07:41.811Z,2.00
2023-04-16T19:10:50.789Z,1.80
2023-04-16T19:14:02.049Z,1.90
2023-04-16T19:17:12.395Z,2.10
2023-04-16T19:20:21.073Z,1.80
2023-04-16T19:23:29.728Z,1.80
2023-04-16T19:26:38.133Z,1.80
2023-04-16T19:29:47.086Z,1.80
2023-04-16T19:32:57.326Z,1.90
2023-04-16T19:36:06.099Z,1.90
2023-04-16T19:39:14.499Z,1.60
2023-04-16T19:42:23.023Z,1.63
2023-04-16T19:45:31.431Z,1.70
2023-04-16T19:48:41.320Z,1.70
2023-04-16T19:51:49.688Z,1.70
2023-04-16T19:54:58.276Z,2.07
2023-04-16T19:58:06.854Z,1.80
2023-04-16T20:01:15.490Z,2.00
2023-04-16T20:04:25.460Z,1.80
2023-04-16T20:07:33.941Z,2.07
2023-04-16T20:10:42.283Z,2.00
2023-04-16T20:13:50.736Z,1.90
2023-04-16T20:16:59.152Z,1.90
2023-04-16T20:20:11.226Z,1.77
2023-04-16T20:23:19.602Z,1.80
2023-04-16T20:26:33.529Z,1.80
2023-04-16T20:29:42.009Z,1.80
2023-04-16T20:32:50.514Z,2.03
2023-04-16T20:36:00.219Z,2.00
2023-04-16T20:39:09.712Z,1.80
2023-04-16T20:42:22.147Z,1.90
2023-04-16T20:45:38.165Z,1.90
2023-04-16T20:48:46.642Z,2.10
2023-04-16T20:51:56.759Z,1.93
2023-04-16T20:55:05.857Z,1.77
2023-04-16T20:58:14.169Z,2.03
2023-04-16T21:01:22.675Z,1.93
2023-04-16T21:04:31.303Z,1.90
2023-04-16T21:07:41.573Z,1.80
2023-04-16T21:10:50.581Z,1.90
2023-04-16T21:13:59.000Z,2.00
2023-04-16T21:17:07.363Z,1.80
2023-04-16T21:20:16.012Z,1.90
2023-04-16T21:23:25.930Z,2.40
2023-04-16T21:26:34.285Z,2.10
2023-04-16T21:29:42.614Z,2.20
2023-04-16T21:32:51.180Z,2.37
2023-04-16T21:35:59.764Z,2.10
2023-04-16T21:39:09.657Z,2.30
2023-04-16T21:42:18.231Z,1.87
2023-04-16T21:45:26.759Z,2.40
2023-04-16T21:48:35.871Z,2.27
2023-04-16T21:51:46.431Z,2.20
2023-04-16T21:54:56.199Z,2.00
2023-04-16T21:58:04.596Z,2.30
2023-04-16T22:01:12.992Z,1.90
2023-04-16T22:04:26.118Z,1.90
2023-04-16T22:07:34.539Z,2.10
2023-04-16T22:10:44.294Z,1.90
2023-04-16T22:13:53.685Z,2.27
2023-04-16T22:17:02.248Z,2.20
2023-04-16T22:20:12.850Z,2.40
2023-04-16T22:23:21.383Z,2.40
2023-04-16T22:26:31.262Z,2.40
2023-04-16T22:29:39.563Z,2.30
2023-04-16T22:32:47.964Z,2.10
2023-04-16T22:35:56.368Z,2.20
2023-04-16T22:39:08.730Z,2.50
2023-04-16T22:42:18.552Z,2.00
2023-04-16T22:45:27.325Z,1.90
2023-04-16T22:48:36.623Z,1.90
2023-04-16T22:51:44.954Z,2.27
2023-04-16T22:54:53.306Z,2.13
2023-04-16T22:58:03.097Z,2.17
2023-04-16T23:01:11.582Z,2.13
2023-04-16T23:04:19.999Z,2.10
2023-04-16T23:07:28.445Z,2.10
2023-04-16T23:10:36.894Z,2.20
2023-04-16T23:13:46.595Z,2.50
2023-04-16T23:16:54.940Z,2.47
2023-04-16T23:20:05.243Z,2.20
2023-04-16T23:23:13.645Z,2.47
2023-04-16T23:26:22.001Z,2.13
2023-04-16T23:29:31.693Z,2.33
2023-04-16T23:32:40.141Z,2.40
2023-04-16T23:35:48.569Z,2.50
2023-04-16T23:38:56.844Z,2.10
2023-04-16T23:42:05.389Z,2.57
2023-04-16T23:45:15.227Z,2.50
2023-04-16T23:48:23.719Z,2.47
2023-04-16T23:51:32.137Z,2.50
2023-04-16T23:54:40.492Z,2.43
2023-04-16T23:57:48.864Z,2.40
